Time,TemperatureF,DewpointF,PressureIn,WindDirection,WindDirectionDegrees,WindSpeedMPH,WindSpeedGustMPH,Humidity,HourlyPrecipIn,Conditions,Clouds,dailyrainin,SoftwareType,DateUTC
2013-06-16 00:00:00,60.6,37.5,30.06,West,270,0.0,0.0,42,0.00,,,0.00,WUHU21623XXSP,2013-06-16 04:00:00,
2013-06-16 00:01:00,60.6,37.5,30.06,West,270,0.0,0.0,42,0.00,,,0.00,WUHU21623XXSP,2013-06-16 04:01:00,
2013-06-16 00:06:00,60.6,38.0,30.06,West,270,0.0,0.0,43,0.00,,,0.00,WUHU21623XXSP,2013-06-16 04:06:00,
2013-06-16 00:11:00,61.0,39.3,30.06,West,270,0.0,0.0,45,0.00,,,0.00,WUHU21623XXSP,2013-06-16 04:11:00,
2013-06-16 00:17:00,61.0,39.8,30.06,West,270,0.0,0.0,46,0.00,,,0.00,WUHU21623XXSP,2013-06-16 04:17:00,
2013-06-16 00:23:00,61.2,40.0,30.07,WSW,247,0.0,0.0,46,0.00,,,0.00,WUHU21623XXSP,2013-06-16 04:23:00,
2013-06-16 00:28:00,61.3,40.5,30.06,WSW,247,0.0,1.3,46,0.00,,,0.00,WUHU21623XXSP,2013-06-16 04:28:00,
2013-06-16 00:34:00,61.5,40.7,30.06,WSW,247,0.0,1.3,46,0.00,,,0.00,WUHU21623XXSP,2013-06-16 04:34:00,
2013-06-16 00:39:00,61.5,41.2,30.06,WSW,247,0.0,0.0,47,0.00,,,0.00,WUHU21623XXSP,2013-06-16 04:39:00,
2013-06-16 00:44:00,61.5,41.2,30.06,WSW,247,0.0,0.0,47,0.00,,,0.00,WUHU21623XXSP,2013-06-16 04:44:00,
2013-06-16 00:49:00,61.5,41.2,30.06,WSW,247,0.0,0.0,47,0.00,,,0.00,WUHU21623XXSP,2013-06-16 04:49:00,
2013-06-16 00:54:00,61.5,41.6,30.05,WSW,247,0.0,0.0,48,0.00,,,0.00,WUHU21623XXSP,2013-06-16 04:54:00,
2013-06-16 00:59:00,61.5,41.6,30.05,WSW,247,0.0,0.0,48,0.00,,,0.00,WUHU21623XXSP,2013-06-16 04:59:00,
2013-06-16 01:04:00,61.5,41.6,30.05,WSW,247,0.0,0.0,48,0.00,,,0.00,WUHU21623XXSP,2013-06-16 05:04:00,
2013-06-16 01:10:00,61.5,42.0,30.05,WSW,247,0.0,0.0,49,0.00,,,0.00,WUHU21623XXSP,2013-06-16 05:10:00,
2013-06-16 01:15:00,61.5,42.0,30.05,WSW,247,0.0,0.0,49,0.00,,,0.00,WUHU21623XXSP,2013-06-16 05:15:00,
2013-06-16 01:20:00,61.5,42.5,30.05,WSW,247,0.0,0.0,50,0.00,,,0.00,WUHU21623XXSP,2013-06-16 05:20:00,
2013-06-16 01:26:00,61.5,42.5,30.05,WSW,247,0.0,0.0,50,0.00,,,0.00,WUHU21623XXSP,2013-06-16 05:26:00,
2013-06-16 01:31:00,61.5,42.5,30.04,WSW,247,0.0,0.0,50,0.00,,,0.00,WUHU21623XXSP,2013-06-16 05:31:00,
2013-06-16 01:37:00,61.5,42.5,30.05,WSW,247,0.0,0.0,50,0.00,,,0.00,WUHU21623XXSP,2013-06-16 05:37:00,
2013-06-16 01:42:00,61.7,42.7,30.04,WSW,247,0.0,0.0,50,0.00,,,0.00,WUHU21623XXSP,2013-06-16 05:42:00,
2013-06-16 01:47:00,61.9,42.9,30.04,WSW,247,0.0,0.0,50,0.00,,,0.00,WUHU21623XXSP,2013-06-16 05:47:00,
2013-06-16 01:53:00,61.9,43.3,30.04,WSW,247,0.0,0.0,50,0.00,,,0.00,WUHU21623XXSP,2013-06-16 05:53:00,
2013-06-16 01:58:00,61.7,43.1,30.04,SW,225,0.0,2.9,50,0.00,,,0.00,WUHU21623XXSP,2013-06-16 05:58:00,
2013-06-16 02:03:00,61.7,43.5,30.04,SW,225,0.0,2.9,51,0.00,,,0.00,WUHU21623XXSP,2013-06-16 06:03:00,
2013-06-16 02:08:00,61.5,43.8,30.04,SW,225,0.0,0.0,52,0.00,,,0.00,WUHU21623XXSP,2013-06-16 06:08:00,
2013-06-16 02:13:00,61.3,44.0,30.05,SW,225,0.0,0.0,53,0.00,,,0.00,WUHU21623XXSP,2013-06-16 06:13:00,
2013-06-16 02:18:00,61.3,44.0,30.04,SW,225,0.0,0.0,53,0.00,,,0.00,WUHU21623XXSP,2013-06-16 06:18:00,
2013-06-16 02:23:00,61.2,43.9,30.04,SW,225,0.0,0.0,53,0.00,,,0.00,WUHU21623XXSP,2013-06-16 06:23:00,
2013-06-16 02:28:00,61.2,43.9,30.04,SW,225,0.0,0.0,53,0.00,,,0.00,WUHU21623XXSP,2013-06-16 06:28:00,
2013-06-16 02:33:00,61.2,44.3,30.04,WSW,247,0.0,0.0,54,0.00,,,0.00,WUHU21623XXSP,2013-06-16 06:33:00,
2013-06-16 02:38:00,61.0,44.1,30.04,WSW,247,0.0,0.0,54,0.00,,,0.00,WUHU21623XXSP,2013-06-16 06:38:00,
2013-06-16 02:44:00,61.0,44.1,30.04,WSW,247,0.0,0.0,54,0.00,,,0.00,WUHU21623XXSP,2013-06-16 06:44:00,
2013-06-16 02:49:00,60.6,43.7,30.03,WSW,247,0.0,0.0,54,0.00,,,0.00,WUHU21623XXSP,2013-06-16 06:49:00,
2013-06-16 02:54:00,60.6,44.1,30.03,WSW,247,0.0,0.0,54,0.00,,,0.00,WUHU21623XXSP,2013-06-16 06:54:00,
2013-06-16 02:59:00,60.6,43.7,30.02,WSW,247,0.0,0.0,54,0.00,,,0.00,WUHU21623XXSP,2013-06-16 06:59:00,
2013-06-16 03:04:00,60.6,44.1,30.02,WSW,247,0.0,0.0,54,0.00,,,0.00,WUHU21623XXSP,2013-06-16 07:04:00,
2013-06-16 03:09:00,60.6,44.1,30.02,WSW,247,0.0,0.0,54,0.00,,,0.00,WUHU21623XXSP,2013-06-16 07:09:00,
2013-06-16 03:14:00,60.6,44.1,30.02,WSW,247,0.0,0.0,54,0.00,,,0.00,WUHU21623XXSP,2013-06-16 07:14:00,
2013-06-16 03:19:00,60.8,44.3,30.02,WSW,247,0.0,0.0,54,0.00,,,0.00,WUHU21623XXSP,2013-06-16 07:19:00,
2013-06-16 03:24:00,60.8,43.9,30.02,WSW,247,0.0,0.0,54,0.00,,,0.00,WUHU21623XXSP,2013-06-16 07:24:00,
2013-06-16 03:29:00,60.8,43.9,30.02,WSW,247,0.0,0.0,54,0.00,,,0.00,WUHU21623XXSP,2013-06-16 07:29:00,
2013-06-16 03:34:00,61.0,44.1,30.01,WSW,247,0.0,0.0,54,0.00,,,0.00,WUHU21623XXSP,2013-06-16 07:34:00,
2013-06-16 03:40:00,61.0,44.1,30.01,WSW,247,0.0,0.0,54,0.00,,,0.00,WUHU21623XXSP,2013-06-16 07:40:00,
2013-06-16 03:46:00,61.0,44.1,30.01,WSW,247,0.0,0.0,54,0.00,,,0.00,WUHU21623XXSP,2013-06-16 07:46:00,
2013-06-16 03:51:00,61.0,44.5,30.01,WSW,247,0.0,0.0,54,0.00,,,0.00,WUHU21623XXSP,2013-06-16 07:51:00,
2013-06-16 03:56:00,61.0,44.5,30.01,WSW,247,0.0,0.0,54,0.00,,,0.00,WUHU21623XXSP,2013-06-16 07:56:00,
2013-06-16 04:01:00,60.8,44.3,30.01,WSW,247,0.0,0.0,54,0.00,,,0.00,WUHU21623XXSP,2013-06-16 08:01:00,
2013-06-16 04:06:00,60.6,44.1,30.01,WSW,247,0.0,0.0,54,0.00,,,0.00,WUHU21623XXSP,2013-06-16 08:06:00,
2013-06-16 04:11:00,60.6,43.7,30.01,WSW,247,0.0,0.0,54,0.00,,,0.00,WUHU21623XXSP,2013-06-16 08:11:00,
2013-06-16 04:16:00,60.6,44.1,30.01,WSW,247,0.0,0.0,54,0.00,,,0.00,WUHU21623XXSP,2013-06-16 08:16:00,
2013-06-16 04:21:00,60.6,44.1,30.01,WSW,247,0.0,0.0,54,0.00,,,0.00,WUHU21623XXSP,2013-06-16 08:21:00,
2013-06-16 04:26:00,60.4,43.9,30.01,WSW,247,0.0,0.0,54,0.00,,,0.00,WUHU21623XXSP,2013-06-16 08:26:00,
2013-06-16 04:31:00,60.4,43.9,30.00,WSW,247,0.0,0.0,54,0.00,,,0.00,WUHU21623XXSP,2013-06-16 08:31:00,
2013-06-16 04:36:00,60.4,43.9,30.01,WSW,247,0.0,0.0,54,0.00,,,0.00,WUHU21623XXSP,2013-06-16 08:36:00,
2013-06-16 04:42:00,60.4,43.9,30.01,WSW,247,0.0,0.0,54,0.00,,,0.00,WUHU21623XXSP,2013-06-16 08:42:00,
2013-06-16 04:49:00,60.6,44.1,30.00,WSW,247,0.0,0.0,54,0.00,,,0.00,WUHU21623XXSP,2013-06-16 08:49:00,
2013-06-16 04:54:00,60.6,44.1,30.01,WSW,247,0.0,0.0,54,0.00,,,0.00,WUHU21623XXSP,2013-06-16 08:54:00,
2013-06-16 04:59:00,60.6,44.1,30.01,SW,225,0.0,0.0,54,0.00,,,0.00,WUHU21623XXSP,2013-06-16 08:59:00,
2013-06-16 05:04:00,60.6,44.1,30.01,SW,225,0.0,0.0,54,0.00,,,0.00,WUHU21623XXSP,2013-06-16 09:04:00,
2013-06-16 05:09:00,60.6,44.1,30.01,SW,225,0.0,0.0,54,0.00,,,0.00,WUHU21623XXSP,2013-06-16 09:09:00,
2013-06-16 05:14:00,60.6,44.1,30.01,WSW,247,0.0,0.0,54,0.00,,,0.00,WUHU21623XXSP,2013-06-16 09:14:00,
2013-06-16 05:19:00,60.6,44.1,30.01,WSW,247,0.0,0.0,54,0.00,,,0.00,WUHU21623XXSP,2013-06-16 09:19:00,
2013-06-16 05:24:00,60.6,44.1,30.01,West,270,0.0,0.0,54,0.00,,,0.00,WUHU21623XXSP,2013-06-16 09:24:00,
2013-06-16 05:29:00,60.6,44.1,30.01,SSE,157,0.0,4.0,54,0.00,,,0.00,WUHU21623XXSP,2013-06-16 09:29:00,
2013-06-16 05:34:00,60.6,44.1,30.01,SW,225,0.0,2.2,54,0.00,,,0.00,WUHU21623XXSP,2013-06-16 09:34:00,
2013-06-16 05:39:00,60.8,44.3,30.00,NNW,337,2.7,2.7,54,0.00,,,0.00,WUHU21623XXSP,2013-06-16 09:39:00,
2013-06-16 05:44:00,60.6,44.1,30.00,WSW,247,0.0,2.7,54,0.00,,,0.00,WUHU21623XXSP,2013-06-16 09:44:00,
2013-06-16 05:49:00,60.6,44.5,30.01,South,180,0.0,0.0,55,0.00,,,0.00,WUHU21623XXSP,2013-06-16 09:49:00,
2013-06-16 05:55:00,60.6,44.5,30.00,WNW,292,0.0,0.0,55,0.00,,,0.00,WUHU21623XXSP,2013-06-16 09:55:00,
2013-06-16 06:01:00,60.6,44.5,30.00,SSW,202,0.0,4.3,55,0.00,,,0.00,WUHU21623XXSP,2013-06-16 10:01:00,
2013-06-16 06:06:00,60.6,44.5,30.00,West,270,0.0,4.3,55,0.00,,,0.00,WUHU21623XXSP,2013-06-16 10:06:00,
2013-06-16 06:11:00,60.6,44.5,30.00,NNW,337,0.0,1.1,55,0.00,,,0.00,WUHU21623XXSP,2013-06-16 10:11:00,
2013-06-16 06:16:00,60.6,44.5,30.00,West,270,0.0,2.5,55,0.00,,,0.00,WUHU21623XXSP,2013-06-16 10:16:00,
2013-06-16 06:21:00,61.0,44.9,30.00,NNW,337,0.0,2.5,55,0.00,,,0.00,WUHU21623XXSP,2013-06-16 10:21:00,
2013-06-16 06:26:00,61.0,45.3,30.00,West,270,2.0,2.0,56,0.00,,,0.00,WUHU21623XXSP,2013-06-16 10:26:00,
2013-06-16 06:31:00,61.0,45.3,30.00,SSW,202,4.3,4.3,56,0.00,,,0.00,WUHU21623XXSP,2013-06-16 10:31:00,
2013-06-16 06:36:00,61.0,45.3,30.00,SSW,202,0.0,5.8,56,0.00,,,0.00,WUHU21623XXSP,2013-06-16 10:36:00,
2013-06-16 06:41:00,60.8,45.1,30.00,SSW,202,3.6,5.8,56,0.00,,,0.00,WUHU21623XXSP,2013-06-16 10:41:00,
2013-06-16 06:46:00,60.8,45.1,30.00,WSW,245,1.1,4.5,56,0.00,,,0.00,WUHU21623XXSP,2013-06-16 10:46:00,
2013-06-16 06:51:00,60.6,45.3,30.00,WSW,255,2.3,5.6,57,0.00,,,0.00,WUHU21623XXSP,2013-06-16 10:51:00,
2013-06-16 06:56:00,60.4,45.1,30.01,WSW,247,3.8,6.5,57,0.00,,,0.00,WUHU21623XXSP,2013-06-16 10:56:00,
2013-06-16 07:01:00,60.1,45.6,30.01,WSW,257,3.2,6.5,58,0.00,,,0.00,WUHU21623XXSP,2013-06-16 11:01:00,
2013-06-16 07:06:00,59.4,45.3,30.01,SSW,202,5.6,7.8,59,0.00,,,0.00,WUHU21623XXSP,2013-06-16 11:06:00,
2013-06-16 07:11:00,58.8,45.4,30.01,SW,218,3.0,7.8,61,0.00,,,0.00,WUHU21623XXSP,2013-06-16 11:11:00,
2013-06-16 07:16:00,58.3,45.6,30.00,WSW,247,0.0,6.0,62,0.00,,,0.00,WUHU21623XXSP,2013-06-16 11:16:00,
2013-06-16 07:21:00,57.7,45.4,30.00,SW,225,1.6,6.0,63,0.00,,,0.00,WUHU21623XXSP,2013-06-16 11:21:00,
2013-06-16 07:26:00,57.6,45.6,30.00,SW,225,0.0,6.0,64,0.00,,,0.00,WUHU21623XXSP,2013-06-16 11:26:00,
2013-06-16 07:31:00,57.4,45.8,30.00,West,270,0.0,0.0,65,0.00,,,0.00,WUHU21623XXSP,2013-06-16 11:31:00,
2013-06-16 07:36:00,57.4,46.1,29.99,SSW,202,0.0,0.0,66,0.00,,,0.00,WUHU21623XXSP,2013-06-16 11:36:00,
2013-06-16 07:41:00,57.4,46.4,29.99,NNW,337,0.0,1.1,66,0.00,,,0.00,WUHU21623XXSP,2013-06-16 11:41:00,
2013-06-16 07:46:00,57.4,46.4,29.99,West,270,0.0,1.1,66,0.00,,,0.00,WUHU21623XXSP,2013-06-16 11:46:00,
2013-06-16 07:51:00,57.4,46.7,29.99,WSW,247,0.0,0.0,67,0.00,,,0.00,WUHU21623XXSP,2013-06-16 11:51:00,
2013-06-16 07:56:00,57.7,47.0,29.99,East,90,0.0,0.0,67,0.00,,,0.00,WUHU21623XXSP,2013-06-16 11:56:00,
2013-06-16 08:01:00,57.9,47.5,29.98,SE,135,0.0,0.0,68,0.00,,,0.00,WUHU21623XXSP,2013-06-16 12:01:00,
2013-06-16 08:06:00,58.1,47.7,29.98,SE,135,4.0,4.0,68,0.00,,,0.00,WUHU21623XXSP,2013-06-16 12:06:00,
2013-06-16 08:11:00,58.5,48.1,29.97,South,180,0.0,4.9,68,0.00,,,0.00,WUHU21623XXSP,2013-06-16 12:11:00,
2013-06-16 08:16:00,58.8,48.4,29.97,SE,135,0.0,4.9,68,0.00,,,0.00,WUHU21623XXSP,2013-06-16 12:16:00,
2013-06-16 08:22:00,58.8,48.4,29.97,SSW,202,0.0,5.6,68,0.00,,,0.00,WUHU21623XXSP,2013-06-16 12:22:00,
2013-06-16 08:28:00,59.4,49.0,29.97,NW,315,0.9,5.8,68,0.00,,,0.00,WUHU21623XXSP,2013-06-16 12:28:00,
2013-06-16 08:33:00,59.7,49.3,29.97,NNE,21,3.3,5.8,68,0.00,,,0.00,WUHU21623XXSP,2013-06-16 12:33:00,
2013-06-16 08:38:00,59.9,49.5,29.97,South,180,0.0,4.5,68,0.00,,,0.00,WUHU21623XXSP,2013-06-16 12:38:00,
2013-06-16 08:44:00,60.1,49.6,29.97,WSW,247,5.1,7.6,68,0.00,,,0.00,WUHU21623XXSP,2013-06-16 12:44:00,
2013-06-16 08:50:00,60.4,49.6,29.97,West,270,3.8,7.6,67,0.00,,,0.00,WUHU21623XXSP,2013-06-16 12:50:00,
2013-06-16 08:55:00,60.6,49.8,29.97,WSW,247,5.4,8.9,67,0.00,,,0.00,WUHU21623XXSP,2013-06-16 12:55:00,
2013-06-16 09:01:00,61.3,50.5,29.96,NW,315,2.8,8.9,67,0.00,,,0.00,WUHU21623XXSP,2013-06-16 13:01:00,
2013-06-16 09:06:00,61.5,50.3,29.96,SW,225,8.5,8.5,66,0.00,,,0.00,WUHU21623XXSP,2013-06-16 13:06:00,
2013-06-16 09:11:00,61.5,50.3,29.97,WSW,247,3.8,8.5,66,0.00,,,0.00,WUHU21623XXSP,2013-06-16 13:11:00,
2013-06-16 09:16:00,61.2,49.7,29.97,WSW,247,5.8,9.6,66,0.00,,,0.00,WUHU21623XXSP,2013-06-16 13:16:00,
2013-06-16 09:21:00,60.6,49.5,29.97,SW,221,4.5,9.6,66,0.00,,,0.00,WUHU21623XXSP,2013-06-16 13:21:00,
2013-06-16 09:26:00,60.4,49.3,29.97,WSW,247,6.3,14.3,66,0.00,,,0.00,WUHU21623XXSP,2013-06-16 13:26:00,
2013-06-16 09:31:00,60.4,49.6,29.96,WSW,247,7.2,14.3,67,0.00,,,0.00,WUHU21623XXSP,2013-06-16 13:31:00,
2013-06-16 09:36:00,60.4,49.6,29.96,WSW,253,5.1,18.8,67,0.00,,,0.00,WUHU21623XXSP,2013-06-16 13:36:00,
2013-06-16 09:41:00,60.6,49.8,29.96,WSW,253,6.1,18.8,67,0.00,,,0.00,WUHU21623XXSP,2013-06-16 13:41:00,
2013-06-16 09:46:00,61.0,50.2,29.96,WSW,247,8.7,17.4,67,0.00,,,0.00,WUHU21623XXSP,2013-06-16 13:46:00,
2013-06-16 09:51:00,61.2,50.7,29.94,SW,234,5.3,13.0,68,0.00,,,0.00,WUHU21623XXSP,2013-06-16 13:51:00,
2013-06-16 09:56:00,61.3,50.8,29.94,SW,222,4.4,13.0,68,0.00,,,0.00,WUHU21623XXSP,2013-06-16 13:56:00,
2013-06-16 10:01:00,61.5,51.0,29.93,SW,221,5.9,8.7,68,0.00,,,0.00,WUHU21623XXSP,2013-06-16 14:01:00,
2013-06-16 10:06:00,61.9,51.4,29.93,WSW,249,4.8,8.7,68,0.00,,,0.00,WUHU21623XXSP,2013-06-16 14:06:00,
2013-06-16 10:11:00,62.2,51.7,29.92,West,274,3.7,9.2,68,0.00,,,0.00,WUHU21623XXSP,2013-06-16 14:11:00,
2013-06-16 10:16:00,62.4,51.9,29.92,WSW,247,7.4,9.6,68,0.00,,,0.00,WUHU21623XXSP,2013-06-16 14:16:00,
2013-06-16 10:21:00,62.6,51.7,29.92,SW,225,7.8,9.6,67,0.00,,,0.00,WUHU21623XXSP,2013-06-16 14:21:00,
2013-06-16 10:26:00,62.8,51.9,29.92,WSW,249,4.3,12.8,67,0.00,,,0.00,WUHU21623XXSP,2013-06-16 14:26:00,
2013-06-16 10:31:00,63.1,52.2,29.92,WSW,247,5.9,12.8,67,0.00,,,0.00,WUHU21623XXSP,2013-06-16 14:31:00,
2013-06-16 10:36:00,63.5,52.6,29.92,WNW,292,6.0,9.8,67,0.00,,,0.00,WUHU21623XXSP,2013-06-16 14:36:00,
2013-06-16 10:41:00,64.0,53.1,29.92,SW,234,7.1,13.6,67,0.00,,,0.00,WUHU21623XXSP,2013-06-16 14:41:00,
2013-06-16 10:46:00,64.8,54.2,29.91,WSW,247,5.8,13.6,68,0.00,,,0.00,WUHU21623XXSP,2013-06-16 14:46:00,
2013-06-16 10:51:00,65.5,54.5,29.92,WSW,241,6.3,13.6,67,0.00,,,0.00,WUHU21623XXSP,2013-06-16 14:51:00,
2013-06-16 10:56:00,66.0,54.7,29.92,WSW,252,5.8,13.6,66,0.00,,,0.00,WUHU21623XXSP,2013-06-16 14:56:00,
2013-06-16 11:01:00,66.2,54.5,29.92,WSW,240,6.9,18.1,66,0.00,,,0.00,WUHU21623XXSP,2013-06-16 15:01:00,
2013-06-16 11:06:00,66.0,54.0,29.93,WSW,249,8.4,18.1,65,0.00,,,0.00,WUHU21623XXSP,2013-06-16 15:06:00,
2013-06-16 11:11:00,66.4,54.4,29.93,WSW,247,11.0,14.1,65,0.00,,,0.00,WUHU21623XXSP,2013-06-16 15:11:00,
2013-06-16 11:17:00,66.6,54.6,29.93,WSW,243,6.9,13.9,65,0.00,,,0.00,WUHU21623XXSP,2013-06-16 15:17:00,
2013-06-16 11:22:00,66.6,54.2,29.93,WSW,239,7.0,14.3,64,0.00,,,0.00,WUHU21623XXSP,2013-06-16 15:22:00,
2013-06-16 11:28:00,66.0,53.6,29.93,SW,221,5.9,12.8,64,0.00,,,0.00,WUHU21623XXSP,2013-06-16 15:28:00,
2013-06-16 11:33:00,66.0,54.0,29.93,WSW,245,8.0,15.2,65,0.00,,,0.00,WUHU21623XXSP,2013-06-16 15:33:00,
2013-06-16 11:38:00,66.0,54.0,29.94,WSW,247,7.4,15.2,65,0.00,,,0.00,WUHU21623XXSP,2013-06-16 15:38:00,
2013-06-16 11:43:00,66.0,54.0,29.94,SSW,202,9.4,16.8,65,0.00,,,0.00,WUHU21623XXSP,2013-06-16 15:43:00,
2013-06-16 11:48:00,66.6,54.6,29.94,SW,233,8.6,16.8,65,0.00,,,0.00,WUHU21623XXSP,2013-06-16 15:48:00,
2013-06-16 11:53:00,67.1,54.7,29.94,West,270,9.4,16.8,64,0.00,,,0.00,WUHU21623XXSP,2013-06-16 15:53:00,
2013-06-16 11:58:00,66.9,54.5,29.94,WSW,240,8.8,23.0,64,0.00,,,0.00,WUHU21623XXSP,2013-06-16 15:58:00,
2013-06-16 12:03:00,66.9,54.5,29.94,SW,225,11.2,23.0,64,0.00,,,0.00,WUHU21623XXSP,2013-06-16 16:03:00,
2013-06-16 12:08:00,66.9,54.2,29.94,SW,236,9.3,15.2,63,0.00,,,0.00,WUHU21623XXSP,2013-06-16 16:08:00,
2013-06-16 12:14:00,67.3,54.2,29.93,WSW,252,9.0,15.2,62,0.00,,,0.00,WUHU21623XXSP,2013-06-16 16:14:00,
2013-06-16 12:19:00,67.8,54.3,29.94,WSW,248,8.6,25.7,62,0.00,,,0.00,WUHU21623XXSP,2013-06-16 16:19:00,
2013-06-16 12:24:00,67.8,53.9,29.93,SSW,195,8.2,25.7,61,0.00,,,0.00,WUHU21623XXSP,2013-06-16 16:24:00,
2013-06-16 12:29:00,67.6,53.8,29.93,SW,233,8.1,19.7,61,0.00,,,0.00,WUHU21623XXSP,2013-06-16 16:29:00,
2013-06-16 12:34:00,67.1,53.6,29.93,SSW,202,9.8,19.7,62,0.00,,,0.00,WUHU21623XXSP,2013-06-16 16:34:00,
2013-06-16 12:39:00,66.7,53.6,29.94,WSW,247,9.8,17.0,62,0.00,,,0.00,WUHU21623XXSP,2013-06-16 16:39:00,
2013-06-16 12:44:00,66.7,53.6,29.94,WSW,247,8.9,15.0,62,0.00,,,0.00,WUHU21623XXSP,2013-06-16 16:44:00,
2013-06-16 12:49:00,66.7,53.6,29.94,WSW,239,7.1,13.0,62,0.00,,,0.00,WUHU21623XXSP,2013-06-16 16:49:00,
2013-06-16 12:54:00,66.9,53.8,29.94,SW,234,10.5,21.9,62,0.00,,,0.00,WUHU21623XXSP,2013-06-16 16:54:00,
2013-06-16 12:59:00,66.7,53.6,29.93,SW,225,7.2,21.9,62,0.00,,,0.00,WUHU21623XXSP,2013-06-16 16:59:00,
2013-06-16 13:04:00,66.7,53.3,29.93,WSW,241,10.1,27.3,62,0.00,,,0.00,WUHU21623XXSP,2013-06-16 17:04:00,
2013-06-16 13:09:00,66.7,53.6,29.93,SW,235,10.0,27.3,62,0.00,,,0.00,WUHU21623XXSP,2013-06-16 17:09:00,
2013-06-16 13:14:00,66.4,53.3,29.93,SW,228,8.3,15.2,62,0.00,,,0.00,WUHU21623XXSP,2013-06-16 17:14:00,
2013-06-16 13:19:00,66.2,53.1,29.93,SW,225,14.5,17.0,62,0.00,,,0.00,WUHU21623XXSP,2013-06-16 17:19:00,
2013-06-16 13:24:00,66.0,53.0,29.93,West,266,7.0,17.0,62,0.00,,,0.00,WUHU21623XXSP,2013-06-16 17:24:00,
2013-06-16 13:29:00,65.5,53.2,29.93,WSW,247,6.0,15.2,64,0.00,,,0.00,WUHU21623XXSP,2013-06-16 17:29:00,
2013-06-16 13:34:00,64.9,52.9,29.93,WSW,237,9.1,12.3,65,0.00,,,0.00,WUHU21623XXSP,2013-06-16 17:34:00,
2013-06-16 13:39:00,64.2,52.6,29.93,SW,225,8.3,16.3,66,0.00,,,0.00,WUHU21623XXSP,2013-06-16 17:39:00,
2013-06-16 13:44:00,64.0,52.7,29.93,SW,225,15.2,16.3,66,0.00,,,0.00,WUHU21623XXSP,2013-06-16 17:44:00,
2013-06-16 13:49:00,63.7,52.8,29.93,SW,234,7.0,15.2,67,0.00,,,0.00,WUHU21623XXSP,2013-06-16 17:49:00,
2013-06-16 13:54:00,63.5,52.9,29.93,SSW,202,16.1,16.1,68,0.00,,,0.00,WUHU21623XXSP,2013-06-16 17:54:00,
2013-06-16 13:59:00,63.3,53.0,29.93,West,270,8.9,16.1,69,0.00,,,0.00,WUHU21623XXSP,2013-06-16 17:59:00,
2013-06-16 14:04:00,63.3,53.0,29.93,WSW,244,4.6,10.7,69,0.00,,,0.00,WUHU21623XXSP,2013-06-16 18:04:00,
2013-06-16 14:09:00,63.3,53.0,29.93,SW,225,12.8,12.8,69,0.00,,,0.00,WUHU21623XXSP,2013-06-16 18:09:00,
2013-06-16 14:15:00,63.1,52.8,29.93,WSW,237,8.0,13.4,69,0.00,,,0.00,WUHU21623XXSP,2013-06-16 18:15:00,
2013-06-16 14:21:00,63.1,53.1,29.93,West,270,12.1,15.9,70,0.00,,,0.00,WUHU21623XXSP,2013-06-16 18:21:00,
2013-06-16 14:26:00,63.1,53.1,29.93,SW,235,9.0,15.9,70,0.00,,,0.00,WUHU21623XXSP,2013-06-16 18:26:00,
2013-06-16 14:31:00,63.1,53.1,29.94,SW,225,13.0,15.7,70,0.00,,,0.00,WUHU21623XXSP,2013-06-16 18:31:00,
2013-06-16 14:37:00,63.1,53.1,29.93,WSW,249,6.9,17.2,70,0.00,,,0.00,WUHU21623XXSP,2013-06-16 18:37:00,
2013-06-16 14:43:00,63.1,53.1,29.93,SW,235,5.3,17.2,70,0.00,,,0.00,WUHU21623XXSP,2013-06-16 18:43:00,
2013-06-16 14:48:00,63.1,53.5,29.93,SSW,202,7.2,15.4,70,0.00,,,0.00,WUHU21623XXSP,2013-06-16 18:48:00,
2013-06-16 14:54:00,63.1,53.5,29.93,WNW,292,8.5,17.2,70,0.00,,,0.00,WUHU21623XXSP,2013-06-16 18:54:00,
2013-06-16 15:02:00,63.1,53.5,29.93,West,270,9.6,15.0,70,0.00,,,0.00,WUHU21623XXSP,2013-06-16 19:02:00,
2013-06-16 15:07:00,63.1,53.5,29.94,WSW,249,8.0,14.8,70,0.00,,,0.00,WUHU21623XXSP,2013-06-16 19:07:00,
2013-06-16 15:12:00,63.1,53.5,29.94,WSW,247,9.4,14.8,70,0.00,,,0.00,WUHU21623XXSP,2013-06-16 19:12:00,
2013-06-16 15:17:00,63.0,53.4,29.94,WSW,247,8.3,13.4,70,0.00,,,0.00,WUHU21623XXSP,2013-06-16 19:17:00,
2013-06-16 15:22:00,63.1,53.5,29.94,WSW,237,6.5,13.4,70,0.00,,,0.00,WUHU21623XXSP,2013-06-16 19:22:00,
2013-06-16 15:27:00,63.7,54.0,29.94,NW,315,11.2,13.4,70,0.00,,,0.00,WUHU21623XXSP,2013-06-16 19:27:00,
2013-06-16 15:32:00,63.7,54.0,29.94,West,270,11.0,12.3,70,0.00,,,0.00,WUHU21623XXSP,2013-06-16 19:32:00,
2013-06-16 15:37:00,64.2,54.5,29.94,WSW,244,7.2,12.3,70,0.00,,,0.00,WUHU21623XXSP,2013-06-16 19:37:00,
2013-06-16 15:42:00,64.2,54.5,29.94,WSW,256,6.8,12.1,70,0.00,,,0.00,WUHU21623XXSP,2013-06-16 19:42:00,
2013-06-16 15:47:00,64.2,54.5,29.94,West,273,8.4,13.9,70,0.00,,,0.00,WUHU21623XXSP,2013-06-16 19:47:00,
2013-06-16 15:54:00,64.2,54.5,29.94,West,270,7.6,13.9,70,0.00,,,0.00,WUHU21623XXSP,2013-06-16 19:54:00,
2013-06-16 16:02:00,64.2,54.5,29.94,WSW,250,5.7,14.5,70,0.00,,,0.00,WUHU21623XXSP,2013-06-16 20:02:00,
2013-06-16 16:08:00,64.2,54.5,29.94,SW,232,5.2,14.5,70,0.00,,,0.00,WUHU21623XXSP,2013-06-16 20:08:00,
2013-06-16 16:14:00,64.6,54.9,29.95,WSW,258,7.1,14.8,70,0.00,,,0.00,WUHU21623XXSP,2013-06-16 20:14:00,
2013-06-16 16:19:00,64.6,54.9,29.94,SW,225,10.1,14.8,70,0.00,,,0.00,WUHU21623XXSP,2013-06-16 20:19:00,
2013-06-16 16:24:00,64.6,54.6,29.94,SW,225,5.4,13.2,70,0.00,,,0.00,WUHU21623XXSP,2013-06-16 20:24:00,
2013-06-16 16:29:00,64.6,54.6,29.94,SW,225,11.2,15.2,70,0.00,,,0.00,WUHU21623XXSP,2013-06-16 20:29:00,
2013-06-16 16:34:00,64.6,54.6,29.94,WSW,247,9.4,15.2,70,0.00,,,0.00,WUHU21623XXSP,2013-06-16 20:34:00,
2013-06-16 16:39:00,64.6,54.6,29.95,WSW,246,6.3,10.3,70,0.00,,,0.00,WUHU21623XXSP,2013-06-16 20:39:00,
2013-06-16 16:44:00,64.6,54.6,29.95,WSW,247,11.2,11.6,70,0.00,,,0.00,WUHU21623XXSP,2013-06-16 20:44:00,
2013-06-16 16:49:00,64.6,54.6,29.94,SW,236,8.6,13.0,70,0.00,,,0.00,WUHU21623XXSP,2013-06-16 20:49:00,
2013-06-16 16:54:00,64.6,54.6,29.95,West,259,6.3,15.0,70,0.00,,,0.00,WUHU21623XXSP,2013-06-16 20:54:00,
2013-06-16 16:59:00,64.8,54.8,29.94,WSW,241,10.0,15.0,70,0.00,,,0.00,WUHU21623XXSP,2013-06-16 20:59:00,
2013-06-16 17:04:00,64.9,54.9,29.95,WSW,245,6.9,14.5,70,0.00,,,0.00,WUHU21623XXSP,2013-06-16 21:04:00,
2013-06-16 17:09:00,65.5,55.5,29.94,SW,224,8.8,19.7,70,0.00,,,0.00,WUHU21623XXSP,2013-06-16 21:09:00,
2013-06-16 17:14:00,66.0,55.9,29.94,WSW,244,7.1,19.7,70,0.00,,,0.00,WUHU21623XXSP,2013-06-16 21:14:00,
2013-06-16 17:19:00,66.9,56.5,29.94,WSW,247,7.8,14.5,69,0.00,,,0.00,WUHU21623XXSP,2013-06-16 21:19:00,
2013-06-16 17:25:00,67.6,56.8,29.94,WSW,254,5.7,13.2,68,0.00,,,0.00,WUHU21623XXSP,2013-06-16 21:25:00,
2013-06-16 17:30:00,67.8,56.7,29.94,WSW,239,5.2,13.2,67,0.00,,,0.00,WUHU21623XXSP,2013-06-16 21:30:00,
2013-06-16 17:36:00,68.7,57.2,29.93,WSW,247,6.9,13.6,66,0.00,,,0.00,WUHU21623XXSP,2013-06-16 21:36:00,
2013-06-16 17:41:00,69.6,57.8,29.93,SSW,202,11.0,14.8,66,0.00,,,0.00,WUHU21623XXSP,2013-06-16 21:41:00,
2013-06-16 17:46:00,69.6,57.4,29.94,WSW,247,8.3,14.8,65,0.00,,,0.00,WUHU21623XXSP,2013-06-16 21:46:00,
2013-06-16 17:51:00,70.2,57.6,29.94,WSW,245,9.4,19.9,64,0.00,,,0.00,WUHU21623XXSP,2013-06-16 21:51:00,
2013-06-16 17:56:00,70.3,57.4,29.94,NW,315,8.7,19.9,63,0.00,,,0.00,WUHU21623XXSP,2013-06-16 21:56:00,
2013-06-16 18:02:00,69.8,56.9,29.94,West,270,8.1,14.8,63,0.00,,,0.00,WUHU21623XXSP,2013-06-16 22:02:00,
2013-06-16 18:09:00,69.6,56.7,29.94,WSW,257,7.2,15.2,63,0.00,,,0.00,WUHU21623XXSP,2013-06-16 22:09:00,
2013-06-16 18:14:00,69.6,56.7,29.94,WSW,250,5.8,15.2,63,0.00,,,0.00,WUHU21623XXSP,2013-06-16 22:14:00,
2013-06-16 18:19:00,70.2,56.9,29.94,WSW,247,6.7,12.3,62,0.00,,,0.00,WUHU21623XXSP,2013-06-16 22:19:00,
2013-06-16 18:25:00,70.3,57.0,29.94,SW,225,13.4,13.4,62,0.00,,,0.00,WUHU21623XXSP,2013-06-16 22:25:00,
2013-06-16 18:31:00,70.0,56.4,29.94,WSW,240,6.2,13.4,62,0.00,,,0.00,WUHU21623XXSP,2013-06-16 22:31:00,
2013-06-16 18:36:00,70.3,56.7,29.94,WSW,243,7.5,14.1,62,0.00,,,0.00,WUHU21623XXSP,2013-06-16 22:36:00,
2013-06-16 18:41:00,70.5,56.9,29.94,WSW,247,6.3,14.1,62,0.00,,,0.00,WUHU21623XXSP,2013-06-16 22:41:00,
2013-06-16 18:48:00,70.9,56.9,29.94,SW,228,7.7,14.1,61,0.00,,,0.00,WUHU21623XXSP,2013-06-16 22:48:00,
2013-06-16 18:54:00,70.9,56.5,29.94,WSW,246,7.4,14.1,60,0.00,,,0.00,WUHU21623XXSP,2013-06-16 22:54:00,
2013-06-16 19:00:00,70.3,56.3,29.94,WSW,247,15.4,15.4,61,0.00,,,0.00,WUHU21623XXSP,2013-06-16 23:00:00,
2013-06-16 19:05:00,70.2,56.2,29.94,WSW,247,2.8,15.4,61,0.00,,,0.00,WUHU21623XXSP,2013-06-16 23:05:00,
2013-06-16 19:10:00,70.5,56.9,29.94,SW,232,4.8,13.2,62,0.00,,,0.00,WUHU21623XXSP,2013-06-16 23:10:00,
2013-06-16 19:15:00,70.3,56.3,29.94,WSW,247,6.1,12.5,61,0.00,,,0.00,WUHU21623XXSP,2013-06-16 23:15:00,
2013-06-16 19:20:00,70.0,56.4,29.94,SW,225,6.0,12.5,62,0.00,,,0.00,WUHU21623XXSP,2013-06-16 23:20:00,
2013-06-16 19:25:00,69.3,55.7,29.95,SW,225,14.5,14.5,62,0.00,,,0.00,WUHU21623XXSP,2013-06-16 23:25:00,
2013-06-16 19:30:00,68.7,55.5,29.95,WSW,247,11.0,14.5,62,0.00,,,0.00,WUHU21623XXSP,2013-06-16 23:30:00,
2013-06-16 19:35:00,68.4,55.6,29.95,SW,224,6.2,11.0,63,0.00,,,0.00,WUHU21623XXSP,2013-06-16 23:35:00,
2013-06-16 19:40:00,68.2,55.4,29.95,WSW,243,5.2,11.6,63,0.00,,,0.00,WUHU21623XXSP,2013-06-16 23:40:00,
2013-06-16 19:45:00,67.8,55.4,29.95,SW,228,6.7,12.1,64,0.00,,,0.00,WUHU21623XXSP,2013-06-16 23:45:00,
2013-06-16 19:50:00,67.5,55.1,29.96,SW,225,9.8,12.1,64,0.00,,,0.00,WUHU21623XXSP,2013-06-16 23:50:00,
2013-06-16 19:56:00,67.1,54.7,29.96,SW,225,13.0,17.2,64,0.00,,,0.00,WUHU21623XXSP,2013-06-16 23:56:00,
2013-06-16 20:01:00,66.9,54.8,29.96,SW,234,6.0,17.2,65,0.00,,,0.00,WUHU21623XXSP,2013-06-17 00:01:00,
2013-06-16 20:06:00,66.6,54.6,29.96,SW,225,10.7,11.4,65,0.00,,,0.00,WUHU21623XXSP,2013-06-17 00:06:00,
2013-06-16 20:11:00,66.4,54.7,29.96,SW,236,8.2,15.4,66,0.00,,,0.00,WUHU21623XXSP,2013-06-17 00:11:00,
2013-06-16 20:16:00,66.0,54.3,29.96,WSW,237,3.8,15.4,66,0.00,,,0.00,WUHU21623XXSP,2013-06-17 00:16:00,
2013-06-16 20:21:00,65.7,54.0,29.96,WSW,239,5.7,11.4,66,0.00,,,0.00,WUHU21623XXSP,2013-06-17 00:21:00,
2013-06-16 20:26:00,65.5,54.2,29.96,SW,234,3.7,8.9,66,0.00,,,0.00,WUHU21623XXSP,2013-06-17 00:26:00,
2013-06-16 20:31:00,65.1,53.8,29.96,SW,225,5.6,8.9,66,0.00,,,0.00,WUHU21623XXSP,2013-06-17 00:31:00,
2013-06-16 20:36:00,65.1,53.8,29.96,WSW,247,10.5,11.0,66,0.00,,,0.00,WUHU21623XXSP,2013-06-17 00:36:00,
2013-06-16 20:41:00,64.9,53.6,29.96,SW,228,5.8,11.9,66,0.00,,,0.00,WUHU21623XXSP,2013-06-17 00:41:00,
2013-06-16 20:46:00,64.9,53.9,29.96,SW,225,6.3,11.9,67,0.00,,,0.00,WUHU21623XXSP,2013-06-17 00:46:00,
2013-06-16 20:51:00,64.9,53.9,29.96,SW,225,8.3,9.4,67,0.00,,,0.00,WUHU21623XXSP,2013-06-17 00:51:00,
2013-06-16 20:57:00,64.8,53.8,29.96,WSW,247,7.2,10.5,67,0.00,,,0.00,WUHU21623XXSP,2013-06-17 00:57:00,
2013-06-16 21:02:00,64.8,53.8,29.96,WSW,245,5.1,10.5,67,0.00,,,0.00,WUHU21623XXSP,2013-06-17 01:02:00,
2013-06-16 21:07:00,64.8,53.8,29.97,WSW,247,6.9,8.1,67,0.00,,,0.00,WUHU21623XXSP,2013-06-17 01:07:00,
2013-06-16 21:12:00,64.8,53.8,29.97,SW,230,4.3,9.8,67,0.00,,,0.00,WUHU21623XXSP,2013-06-17 01:12:00,
2013-06-16 21:17:00,64.8,54.2,29.97,WSW,247,4.4,9.8,68,0.00,,,0.00,WUHU21623XXSP,2013-06-17 01:17:00,
2013-06-16 21:22:00,64.8,54.2,29.97,SW,225,9.2,10.5,68,0.00,,,0.00,WUHU21623XXSP,2013-06-17 01:22:00,
2013-06-16 21:27:00,64.8,54.2,29.97,WSW,247,3.7,10.5,68,0.00,,,0.00,WUHU21623XXSP,2013-06-17 01:27:00,
2013-06-16 21:32:00,64.8,54.2,29.97,WSW,247,6.2,10.7,68,0.00,,,0.00,WUHU21623XXSP,2013-06-17 01:32:00,
2013-06-16 21:37:00,64.4,53.8,29.97,WSW,247,6.7,10.7,68,0.00,,,0.00,WUHU21623XXSP,2013-06-17 01:37:00,
2013-06-16 21:42:00,64.4,53.8,29.97,West,270,7.4,9.6,68,0.00,,,0.00,WUHU21623XXSP,2013-06-17 01:42:00,
2013-06-16 21:47:00,64.6,54.0,29.97,WSW,239,4.4,17.7,68,0.00,,,0.00,WUHU21623XXSP,2013-06-17 01:47:00,
2013-06-16 21:52:00,64.6,54.0,29.97,SW,225,10.7,10.7,68,0.00,,,0.00,WUHU21623XXSP,2013-06-17 01:52:00,
2013-06-16 21:57:00,64.6,54.0,29.97,SW,225,4.9,10.7,68,0.00,,,0.00,WUHU21623XXSP,2013-06-17 01:57:00,
2013-06-16 22:02:00,64.6,54.0,29.97,SW,236,5.0,9.6,68,0.00,,,0.00,WUHU21623XXSP,2013-06-17 02:02:00,
2013-06-16 22:07:00,64.6,54.0,29.97,WSW,247,10.5,10.5,68,0.00,,,0.00,WUHU21623XXSP,2013-06-17 02:07:00,
2013-06-16 22:12:00,64.6,54.0,29.97,WSW,247,3.7,10.5,68,0.00,,,0.00,WUHU21623XXSP,2013-06-17 02:12:00,
2013-06-16 22:17:00,64.6,54.0,29.97,SW,229,3.7,9.4,68,0.00,,,0.00,WUHU21623XXSP,2013-06-17 02:17:00,
2013-06-16 22:22:00,64.6,54.0,29.98,WSW,247,6.7,8.1,68,0.00,,,0.00,WUHU21623XXSP,2013-06-17 02:22:00,
2013-06-16 22:27:00,64.6,54.0,29.98,WSW,247,6.0,8.5,68,0.00,,,0.00,WUHU21623XXSP,2013-06-17 02:27:00,
2013-06-16 22:32:00,64.6,54.0,29.98,SW,231,3.8,8.9,68,0.00,,,0.00,WUHU21623XXSP,2013-06-17 02:32:00,
2013-06-16 22:37:00,64.8,54.2,29.98,WSW,244,4.6,11.4,68,0.00,,,0.00,WUHU21623XXSP,2013-06-17 02:37:00,
2013-06-16 22:42:00,64.8,54.2,29.98,WSW,255,5.1,11.4,68,0.00,,,0.00,WUHU21623XXSP,2013-06-17 02:42:00,
2013-06-16 22:47:00,64.8,54.2,29.98,West,270,8.1,11.2,68,0.00,,,0.00,WUHU21623XXSP,2013-06-17 02:47:00,
2013-06-16 22:52:00,64.8,54.2,29.99,SW,231,4.5,9.4,68,0.00,,,0.00,WUHU21623XXSP,2013-06-17 02:52:00,
2013-06-16 22:57:00,64.8,54.2,29.99,WSW,240,6.2,10.5,68,0.00,,,0.00,WUHU21623XXSP,2013-06-17 02:57:00,
2013-06-16 23:03:00,64.8,54.2,29.98,WSW,247,5.8,10.5,68,0.00,,,0.00,WUHU21623XXSP,2013-06-17 03:03:00,
2013-06-16 23:08:00,64.6,54.0,29.98,West,270,6.5,9.8,68,0.00,,,0.00,WUHU21623XXSP,2013-06-17 03:08:00,
2013-06-16 23:13:00,64.6,54.0,29.98,WSW,243,5.8,11.0,68,0.00,,,0.00,WUHU21623XXSP,2013-06-17 03:13:00,
2013-06-16 23:18:00,64.2,53.6,29.98,WSW,237,4.0,11.0,68,0.00,,,0.00,WUHU21623XXSP,2013-06-17 03:18:00,
2013-06-16 23:23:00,64.2,53.9,29.98,WSW,247,8.1,14.1,69,0.00,,,0.00,WUHU21623XXSP,2013-06-17 03:23:00,
2013-06-16 23:28:00,64.2,53.9,29.99,SW,227,7.0,14.1,69,0.00,,,0.00,WUHU21623XXSP,2013-06-17 03:28:00,
2013-06-16 23:33:00,64.2,53.9,29.98,WSW,237,5.7,10.7,69,0.00,,,0.00,WUHU21623XXSP,2013-06-17 03:33:00,
2013-06-16 23:39:00,64.2,53.9,29.98,SW,232,5.4,12.1,69,0.00,,,0.00,WUHU21623XXSP,2013-06-17 03:39:00,
2013-06-16 23:44:00,64.2,53.9,29.98,SW,226,5.5,9.6,69,0.00,,,0.00,WUHU21623XXSP,2013-06-17 03:44:00,
2013-06-16 23:49:00,64.2,53.9,29.98,SW,229,3.7,14.1,69,0.00,,,0.00,WUHU21623XXSP,2013-06-17 03:49:00,
2013-06-16 23:55:00,64.2,53.9,29.98,WSW,247,8.7,14.1,69,0.00,,,0.00,WUHU21623XXSP,2013-06-17 03:55:00,